Time;durP1;ratioP1;P1;durP2;ratioP2;P2;SDS_P1;SDS_P2;PMS_P1;PMS_P2;Temp;Humidity;BMP_temperature;BMP_pressure;BME280_temperature;BME280_humidity;BME280_pressure;Samples;Min_cycle;Max_cycle;Signal;HPM_P1;HPM_P2
2021/07/08 00:00:09;;;;;;;4.37;4.07;;;21.80;99.90;;;;;;5072397;28;20867;-65
2021/07/08 00:02:36;;;;;;;3.70;3.50;;;21.80;99.90;;;;;;5072559;28;20971;-65
2021/07/08 00:05:10;;;;;;;4.20;4.00;;;21.80;99.90;;;;;;5072304;28;20471;-65
2021/07/08 00:07:37;;;;;;;4.30;4.00;;;21.80;99.90;;;;;;5071966;28;20478;-63
2021/07/08 00:10:09;;;;;;;4.17;3.90;;;21.80;99.90;;;;;;5071986;28;20474;-65
2021/07/08 00:12:38;;;;;;;4.70;4.30;;;21.80;99.90;;;;;;5065324;28;20462;-64
2021/07/08 00:15:09;;;;;;;4.47;4.17;;;21.80;99.90;;;;;;5072085;28;20485;-64
2021/07/08 00:17:36;;;;;;;4.23;4.03;;;21.70;99.90;;;;;;5072196;28;20471;-64
2021/07/08 00:20:08;;;;;;;4.10;3.80;;;21.80;99.90;;;;;;5068912;28;20458;-64
2021/07/08 00:22:35;;;;;;;4.83;4.53;;;21.70;99.90;;;;;;5059833;28;20858;-64
2021/07/08 00:25:02;;;;;;;4.73;4.43;;;21.70;99.90;;;;;;5072031;28;20473;-65
2021/07/08 00:27:29;;;;;;;4.50;4.20;;;21.70;99.90;;;;;;5072200;28;20874;-64
2021/07/08 00:29:57;;;;;;;6.17;5.00;;;21.70;99.90;;;;;;5072261;28;20470;-63
2021/07/08 00:32:24;;;;;;;5.17;4.80;;;21.70;99.90;;;;;;5067630;28;20836;-64
2021/07/08 00:34:51;;;;;;;4.00;3.77;;;21.70;99.90;;;;;;5071688;28;20478;-63
2021/07/08 00:37:18;;;;;;;4.00;3.70;;;21.60;99.90;;;;;;5070978;28;20486;-64
2021/07/08 00:39:45;;;;;;;4.90;4.60;;;21.60;99.90;;;;;;5072513;28;20462;-63
2021/07/08 00:42:12;;;;;;;4.07;3.80;;;21.60;99.90;;;;;;5071624;28;20462;-63
2021/07/08 00:44:39;;;;;;;4.30;4.10;;;21.60;99.90;;;;;;5068614;28;21008;-64
2021/07/08 00:47:07;;;;;;;4.97;4.57;;;21.60;99.90;;;;;;5071691;28;20469;-64
2021/07/08 00:49:35;;;;;;;5.57;5.17;;;21.60;99.90;;;;;;5072138;28;20792;-64
2021/07/08 00:52:01;;;;;;;5.43;4.93;;;21.60;99.90;;;;;;5072082;28;20478;-64
2021/07/08 00:54:28;;;;;;;5.47;4.97;;;21.60;99.90;;;;;;5071866;28;20454;-65
2021/07/08 00:56:55;;;;;;;6.53;6.03;;;21.50;99.90;;;;;;5071900;28;20482;-64
2021/07/08 00:59:22;;;;;;;6.73;6.20;;;21.50;99.90;;;;;;5073654;28;20474;-65
2021/07/08 01:01:50;;;;;;;6.80;6.30;;;21.50;99.90;;;;;;5075676;28;20796;-65
2021/07/08 01:04:19;;;;;;;5.77;5.37;;;21.60;99.90;;;;;;5075463;28;20462;-64
2021/07/08 01:06:46;;;;;;;6.77;6.27;;;21.50;99.90;;;;;;5075875;28;20473;-65
2021/07/08 01:09:14;;;;;;;9.00;7.80;;;21.50;99.90;;;;;;5075474;28;20478;-65
2021/07/08 01:11:41;;;;;;;7.27;6.77;;;21.50;99.90;;;;;;5070873;28;20477;-65
2021/07/08 01:14:08;;;;;;;6.33;5.73;;;21.50;99.90;;;;;;5068433;28;20484;-64
2021/07/08 01:16:36;;;;;;;6.50;6.00;;;21.50;99.90;;;;;;5063668;28;20462;-64
2021/07/08 01:19:04;;;;;;;5.03;4.73;;;21.40;99.90;;;;;;5067567;28;20813;-65
2021/07/08 01:21:33;;;;;;;5.27;4.97;;;21.40;99.90;;;;;;5075553;28;21260;-64
2021/07/08 01:24:02;;;;;;;5.07;4.73;;;21.40;99.90;;;;;;5075445;28;20474;-64
2021/07/08 01:26:29;;;;;;;5.50;5.00;;;21.40;99.90;;;;;;5074956;28;20853;-64
2021/07/08 01:28:57;;;;;;;5.80;5.50;;;21.40;99.90;;;;;;5075357;28;20478;-64
2021/07/08 01:31:25;;;;;;;4.83;4.53;;;21.40;99.90;;;;;;5074876;28;20486;-64
2021/07/08 01:33:54;;;;;;;6.17;5.67;;;21.40;99.90;;;;;;5071005;28;20987;-64
2021/07/08 01:36:21;;;;;;;6.07;5.60;;;21.30;99.90;;;;;;5065201;28;20462;-64
2021/07/08 01:38:50;;;;;;;5.83;5.53;;;21.30;99.90;;;;;;5075151;28;20477;-64
2021/07/08 01:41:17;;;;;;;5.30;5.00;;;21.30;99.90;;;;;;5074913;28;20474;-64
2021/07/08 01:43:45;;;;;;;5.67;5.27;;;21.30;99.90;;;;;;5063516;28;20471;-63
2021/07/08 01:46:15;;;;;;;5.77;5.20;;;21.30;99.90;;;;;;5074741;28;20481;-64
2021/07/08 01:48:42;;;;;;;5.53;5.13;;;21.30;99.90;;;;;;5074838;28;20477;-64
2021/07/08 01:51:19;;;;;;;5.23;4.87;;;21.30;99.90;;;;;;5074868;28;20492;-64
2021/07/08 01:53:46;;;;;;;6.27;5.87;;;21.30;99.90;;;;;;5074890;28;20462;-64
2021/07/08 01:56:14;;;;;;;6.03;5.67;;;21.20;99.90;;;;;;5074506;28;20955;-64
2021/07/08 01:58:41;;;;;;;5.33;4.97;;;21.20;99.90;;;;;;5075025;28;20478;-64
2021/07/08 02:01:08;;;;;;;6.37;5.77;;;21.20;99.90;;;;;;5074806;28;20808;-64
2021/07/08 02:03:35;;;;;;;5.00;4.60;;;21.10;99.90;;;;;;5074634;28;20458;-64
2021/07/08 02:06:02;;;;;;;6.50;6.00;;;21.10;99.90;;;;;;5072879;28;20477;-64
2021/07/08 02:08:29;;;;;;;7.20;6.53;;;21.10;99.90;;;;;;5071180;28;20797;-64
2021/07/08 02:10:56;;;;;;;6.33;5.80;;;21.00;99.90;;;;;;5052365;28;20486;-64
2021/07/08 02:13:25;;;;;;;7.07;6.57;;;21.10;99.90;;;;;;5052888;28;20471;-65
2021/07/08 02:15:52;;;;;;;6.27;5.87;;;21.00;99.90;;;;;;5054682;28;20477;-64
2021/07/08 02:18:19;;;;;;;6.70;6.20;;;21.00;99.90;;;;;;5053793;28;20467;-64
2021/07/08 02:20:46;;;;;;;6.90;6.40;;;21.00;99.90;;;;;;5054679;28;20455;-64
2021/07/08 02:23:13;;;;;;;6.60;6.10;;;21.00;99.90;;;;;;5052981;28;20467;-64
2021/07/08 02:25:39;;;;;;;6.30;5.90;;;21.00;99.90;;;;;;5052793;28;20673;-64
2021/07/08 02:28:06;;;;;;;6.43;6.03;;;21.00;99.90;;;;;;5052820;28;20506;-64
2021/07/08 02:30:35;;;;;;;6.50;6.00;;;20.90;99.90;;;;;;5052088;28;20455;-64
2021/07/08 02:33:02;;;;;;;5.77;5.27;;;20.90;99.90;;;;;;5062993;28;20470;-64
2021/07/08 02:35:29;;;;;;;7.00;6.40;;;20.90;99.90;;;;;;5072355;28;20760;-64
2021/07/08 02:37:56;;;;;;;7.13;6.63;;;20.90;99.90;;;;;;5074159;28;20477;-64
2021/07/08 02:40:25;;;;;;;6.93;6.37;;;20.90;99.90;;;;;;5073948;28;20964;-64
2021/07/08 02:42:53;;;;;;;7.13;6.50;;;20.90;99.90;;;;;;5069236;28;20467;-64
2021/07/08 02:45:21;;;;;;;7.27;6.77;;;20.80;99.90;;;;;;5054033;28;20544;-65
2021/07/08 02:47:50;;;;;;;6.20;5.80;;;20.90;99.90;;;;;;5054156;28;20463;-64
2021/07/08 02:50:18;;;;;;;6.77;6.27;;;20.80;99.90;;;;;;5053722;28;20481;-64
2021/07/08 02:52:45;;;;;;;9.33;6.60;;;20.80;99.90;;;;;;5054186;28;20474;-64
2021/07/08 02:55:13;;;;;;;7.43;6.57;;;20.90;99.90;;;;;;5053868;28;20482;-64
2021/07/08 02:57:40;;;;;;;6.50;6.10;;;20.80;99.90;;;;;;5053916;28;20476;-64
2021/07/08 03:00:09;;;;;;;5.47;5.07;;;20.90;99.90;;;;;;5053971;28;20467;-64
2021/07/08 03:02:36;;;;;;;6.67;6.13;;;20.80;99.90;;;;;;5053561;28;20463;-64
2021/07/08 03:05:06;;;;;;;5.73;5.33;;;20.80;99.90;;;;;;5053885;28;20488;-64
2021/07/08 03:07:33;;;;;;;6.03;5.67;;;20.80;99.90;;;;;;5053345;28;20468;-64
2021/07/08 03:10:00;;;;;;;7.37;6.87;;;20.80;99.90;;;;;;5053957;28;20787;-64
2021/07/08 03:12:27;;;;;;;5.40;5.00;;;20.80;99.90;;;;;;5067580;28;20802;-64
2021/07/08 03:14:54;;;;;;;6.00;5.50;;;20.80;99.90;;;;;;5073710;28;20466;-64
2021/07/08 03:17:21;;;;;;;5.50;5.20;;;20.80;99.90;;;;;;5073078;28;20475;-64
2021/07/08 03:19:48;;;;;;;5.40;5.00;;;20.80;99.90;;;;;;5073615;28;20467;-64
2021/07/08 03:22:17;;;;;;;5.50;5.20;;;20.80;99.90;;;;;;5073019;28;20473;-64
2021/07/08 03:24:43;;;;;;;4.97;4.67;;;20.80;99.90;;;;;;5073774;28;20474;-64
2021/07/08 03:27:10;;;;;;;5.77;5.27;;;20.80;99.90;;;;;;5073500;28;20930;-64
2021/07/08 03:29:37;;;;;;;5.83;5.43;;;20.80;99.90;;;;;;5073001;28;20466;-64
2021/07/08 03:32:05;;;;;;;4.97;4.63;;;20.80;99.90;;;;;;5070960;28;20466;-65
2021/07/08 03:34:32;;;;;;;5.90;5.40;;;20.80;99.90;;;;;;5071290;28;20466;-64
2021/07/08 03:36:59;;;;;;;4.80;4.50;;;20.80;99.90;;;;;;5073186;28;20466;-64
2021/07/08 03:39:27;;;;;;;5.33;5.00;;;20.80;99.90;;;;;;5072899;28;20469;-64
2021/07/08 03:41:54;;;;;;;6.27;5.77;;;20.80;99.90;;;;;;5073235;28;20871;-64
2021/07/08 03:44:21;;;;;;;5.87;5.40;;;20.80;99.90;;;;;;5055468;28;20467;-64
2021/07/08 03:46:48;;;;;;;4.50;4.20;;;20.80;99.90;;;;;;5053322;28;20957;-65
2021/07/08 03:49:16;;;;;;;5.73;5.27;;;20.80;99.90;;;;;;5053134;28;20471;-64
2021/07/08 03:51:43;;;;;;;4.73;4.50;;;20.90;99.90;;;;;;5052787;28;21029;-64
2021/07/08 03:54:10;;;;;;;4.90;4.60;;;20.80;99.90;;;;;;5052996;28;20908;-64
2021/07/08 03:56:38;;;;;;;5.00;4.60;;;20.90;99.90;;;;;;5052640;28;20456;-64
2021/07/08 03:59:05;;;;;;;4.50;4.20;;;20.90;99.90;;;;;;5053156;28;20805;-64
2021/07/08 04:01:32;;;;;;;5.27;4.87;;;20.90;99.90;;;;;;5052636;28;20464;-64
2021/07/08 04:03:59;;;;;;;4.57;4.27;;;20.90;99.90;;;;;;5053004;28;20467;-64
2021/07/08 04:06:25;;;;;;;4.90;4.60;;;20.90;99.90;;;;;;5052495;28;20463;-64
2021/07/08 04:08:52;;;;;;;5.00;4.70;;;20.90;99.90;;;;;;5052801;28;20479;-64
2021/07/08 04:11:19;;;;;;;5.50;4.07;;;21.00;99.90;;;;;;5057435;28;20527;-64
2021/07/08 04:13:47;;;;;;;4.60;4.30;;;21.00;99.90;;;;;;5072670;28;20469;-64
2021/07/08 04:16:14;;;;;;;5.00;4.70;;;21.00;99.90;;;;;;5072837;28;20466;-64
2021/07/08 04:18:41;;;;;;;5.53;5.03;;;21.00;99.90;;;;;;5071873;28;20458;-64
2021/07/08 04:21:08;;;;;;;4.83;4.43;;;21.00;99.90;;;;;;5072700;28;20466;-64
2021/07/08 04:23:35;;;;;;;4.60;4.30;;;21.10;99.90;;;;;;5072471;28;20466;-64
2021/07/08 04:26:02;;;;;;;5.13;4.83;;;21.10;99.90;;;;;;5072785;28;20469;-64
2021/07/08 04:28:30;;;;;;;4.90;4.60;;;21.10;99.90;;;;;;5072186;28;20478;-64
2021/07/08 04:30:58;;;;;;;4.37;4.10;;;21.20;99.90;;;;;;5072551;28;20465;-64
2021/07/08 04:33:25;;;;;;;4.80;4.50;;;21.10;99.90;;;;;;5070779;28;20467;-64
2021/07/08 04:35:52;;;;;;;5.50;5.13;;;21.20;99.90;;;;;;5079312;28;20470;-64
2021/07/08 04:38:21;;;;;;;5.20;4.80;;;21.20;99.90;;;;;;5078931;28;20812;-64
2021/07/08 04:40:47;;;;;;;5.40;5.00;;;21.20;99.90;;;;;;5079084;28;20450;-64
2021/07/08 04:43:15;;;;;;;4.00;3.47;;;21.20;99.90;;;;;;5070995;28;20466;-64
2021/07/08 04:45:43;;;;;;;6.07;4.57;;;21.20;99.90;;;;;;5058645;28;20470;-64
2021/07/08 04:48:13;;;;;;;5.20;4.03;;;21.20;99.90;;;;;;5059024;28;21003;-64
2021/07/08 04:50:40;;;;;;;5.17;4.80;;;21.30;99.90;;;;;;5058921;28;20470;-64
2021/07/08 04:53:07;;;;;;;4.77;4.37;;;21.30;99.90;;;;;;5058918;28;20998;-64
2021/07/08 04:55:34;;;;;;;5.00;4.60;;;21.30;99.90;;;;;;5058862;28;20467;-64
2021/07/08 04:58:01;;;;;;;4.90;4.27;;;21.40;99.90;;;;;;5058917;28;20809;-64
2021/07/08 05:00:28;;;;;;;5.27;4.87;;;21.40;99.90;;;;;;5058452;28;20475;-64
2021/07/08 05:02:55;;;;;;;4.77;4.47;;;21.40;99.90;;;;;;5059001;28;20455;-64
2021/07/08 05:05:23;;;;;;;5.27;4.90;;;21.50;99.90;;;;;;5058744;28;21052;-64
2021/07/08 05:07:51;;;;;;;5.13;4.77;;;21.50;99.90;;;;;;5058790;28;20777;-64
2021/07/08 05:10:19;;;;;;;6.40;5.90;;;21.60;99.90;;;;;;5059181;28;20478;-64
2021/07/08 05:12:46;;;;;;;6.13;5.73;;;21.60;99.90;;;;;;5075392;28;20469;-65
2021/07/08 05:15:15;;;;;;;5.00;4.63;;;21.70;99.90;;;;;;5078817;28;20473;-64
2021/07/08 05:17:43;;;;;;;5.60;5.20;;;21.80;99.90;;;;;;5078232;28;20477;-64
2021/07/08 05:20:11;;;;;;;7.03;6.53;;;21.80;99.90;;;;;;5078945;28;20861;-64
2021/07/08 05:22:40;;;;;;;7.03;6.50;;;21.90;99.90;;;;;;5078458;28;20462;-64
2021/07/08 05:25:10;;;;;;;7.60;7.00;;;21.90;99.90;;;;;;5078975;28;20478;-64
2021/07/08 05:27:38;;;;;;;6.67;6.17;;;22.00;99.90;;;;;;5078248;28;20473;-64
2021/07/08 05:30:07;;;;;;;6.40;5.90;;;22.00;99.90;;;;;;5078828;28;20549;-64
2021/07/08 05:32:34;;;;;;;5.27;4.87;;;22.10;99.90;;;;;;5073797;28;20486;-64
2021/07/08 05:35:01;;;;;;;6.67;6.10;;;22.10;99.90;;;;;;5078770;28;20461;-64
2021/07/08 05:37:28;;;;;;;6.93;6.13;;;22.20;99.90;;;;;;5077971;28;20479;-65
2021/07/08 05:39:56;;;;;;;6.73;6.23;;;22.20;99.90;;;;;;5078835;28;20956;-64
2021/07/08 05:42:24;;;;;;;5.70;5.40;;;22.30;99.90;;;;;;5077665;28;20462;-64
2021/07/08 05:44:51;;;;;;;7.63;6.93;;;22.40;99.90;;;;;;5055556;28;20474;-64
2021/07/08 05:47:18;;;;;;;6.80;6.30;;;22.40;99.90;;;;;;5055290;28;20467;-64
2021/07/08 05:49:45;;;;;;;7.37;6.77;;;22.40;99.90;;;;;;5055016;28;20471;-64
2021/07/08 05:52:12;;;;;;;6.03;5.63;;;22.50;99.90;;;;;;5055347;28;20463;-65
2021/07/08 05:54:39;;;;;;;6.10;5.30;;;22.40;99.90;;;;;;5054916;28;20474;-64
2021/07/08 05:57:07;;;;;;;6.37;5.87;;;22.50;99.90;;;;;;5055210;28;20961;-64
2021/07/08 05:59:34;;;;;;;5.67;5.30;;;22.40;99.90;;;;;;5054549;28;20482;-64
2021/07/08 06:02:01;;;;;;;5.27;4.90;;;22.50;99.90;;;;;;5055241;28;20478;-64
2021/07/08 06:04:28;;;;;;;5.40;4.97;;;22.50;99.90;;;;;;5055046;28;20467;-64
2021/07/08 06:06:55;;;;;;;5.57;5.27;;;22.50;99.90;;;;;;5054815;28;20456;-64
2021/07/08 06:09:22;;;;;;;5.30;4.90;;;22.40;99.90;;;;;;5054974;28;20568;-64
2021/07/08 06:11:50;;;;;;;5.97;5.47;;;22.50;99.90;;;;;;5054095;28;20471;-64
2021/07/08 06:14:18;;;;;;;4.80;4.53;;;22.40;99.90;;;;;;5055067;28;20503;-64
2021/07/08 06:16:45;;;;;;;5.23;4.83;;;22.50;99.90;;;;;;5054598;28;20464;-64
2021/07/08 06:19:12;;;;;;;5.50;5.10;;;22.50;99.90;;;;;;5054419;28;20494;-64
2021/07/08 06:21:39;;;;;;;5.53;5.13;;;22.50;99.90;;;;;;5054473;28;20472;-64
2021/07/08 06:24:08;;;;;;;6.00;5.50;;;22.40;99.90;;;;;;5054785;28;20475;-65
2021/07/08 06:26:35;;;;;;;5.20;4.80;;;22.40;99.90;;;;;;5054199;28;20536;-64
2021/07/08 06:29:02;;;;;;;6.40;5.80;;;22.40;99.90;;;;;;5054708;28;20475;-64
2021/07/08 06:31:30;;;;;;;4.67;4.37;;;22.40;99.90;;;;;;5054465;28;20479;-64
2021/07/08 06:33:57;;;;;;;5.70;4.57;;;22.40;99.90;;;;;;5071799;28;20466;-64
2021/07/08 06:36:24;;;;;;;5.50;5.10;;;22.40;99.90;;;;;;5074750;28;20477;-64
2021/07/08 06:38:51;;;;;;;5.43;4.93;;;22.40;99.90;;;;;;5074013;28;20854;-64
2021/07/08 06:41:18;;;;;;;5.97;5.43;;;22.40;99.90;;;;;;5074361;28;20458;-64
2021/07/08 06:43:45;;;;;;;5.57;5.10;;;22.40;99.90;;;;;;5061792;28;20467;-64
2021/07/08 06:46:16;;;;;;;5.30;4.87;;;22.30;99.90;;;;;;5054374;28;20467;-64
2021/07/08 06:48:53;;;;;;;5.67;5.27;;;22.40;99.90;;;;;;5053665;28;20499;-64
2021/07/08 06:51:20;;;;;;;4.70;4.33;;;22.40;99.90;;;;;;5054214;28;20462;-64
2021/07/08 06:53:46;;;;;;;5.63;5.30;;;22.40;99.90;;;;;;5053727;28;20475;-64
2021/07/08 06:56:13;;;;;;;7.77;5.10;;;22.30;99.90;;;;;;5054086;28;20800;-64
2021/07/08 06:58:40;;;;;;;4.90;4.50;;;22.30;99.90;;;;;;5053542;28;20474;-64
2021/07/08 07:01:08;;;;;;;4.57;4.27;;;22.30;99.90;;;;;;5054037;28;20465;-64
2021/07/08 07:03:35;;;;;;;4.40;4.00;;;22.30;99.90;;;;;;5053595;28;20966;-64
2021/07/08 07:06:04;;;;;;;6.10;4.10;;;22.30;99.90;;;;;;5054355;28;20525;-64
2021/07/08 07:08:31;;;;;;;4.17;3.87;;;22.30;99.90;;;;;;5053721;28;20467;-64
2021/07/08 07:10:58;;;;;;;5.17;4.67;;;22.30;99.90;;;;;;5053324;28;20471;-64
2021/07/08 07:13:25;;;;;;;4.87;4.47;;;22.30;99.90;;;;;;5053721;28;20470;-64
2021/07/08 07:15:52;;;;;;;4.73;4.23;;;22.30;99.90;;;;;;5053391;28;20786;-64
2021/07/08 07:18:19;;;;;;;4.33;3.93;;;22.30;99.90;;;;;;5053340;28;20525;-64
2021/07/08 07:20:46;;;;;;;5.63;4.50;;;22.30;99.90;;;;;;5053456;28;20805;-64
2021/07/08 07:23:14;;;;;;;4.83;4.30;;;22.30;99.90;;;;;;5053652;28;20464;-64
2021/07/08 07:25:41;;;;;;;4.80;4.40;;;22.30;99.90;;;;;;5053160;28;20811;-64
2021/07/08 07:28:09;;;;;;;3.87;3.57;;;22.30;99.90;;;;;;5053474;28;20479;-64
2021/07/08 07:30:37;;;;;;;4.60;4.20;;;22.30;99.90;;;;;;5053282;28;20475;-64
2021/07/08 07:33:04;;;;;;;5.00;4.50;;;22.20;99.90;;;;;;5063430;28;20474;-64
2021/07/08 07:35:31;;;;;;;5.90;4.30;;;22.30;99.90;;;;;;5073568;28;20474;-64
2021/07/08 07:37:58;;;;;;;5.00;4.60;;;22.30;99.90;;;;;;5072723;28;20470;-64
2021/07/08 07:40:27;;;;;;;4.83;4.53;;;22.30;99.90;;;;;;5058999;28;20482;-64
2021/07/08 07:42:54;;;;;;;4.70;4.30;;;22.30;99.90;;;;;;5054924;28;20517;-65
2021/07/08 07:45:21;;;;;;;4.37;3.97;;;22.30;99.90;;;;;;5072803;28;20481;-64
2021/07/08 07:47:52;;;;;;;4.53;4.13;;;22.30;99.90;;;;;;5072278;28;20478;-65
2021/07/08 07:50:20;;;;;;;4.63;4.23;;;22.40;99.90;;;;;;5073261;28;20466;-65
2021/07/08 07:52:47;;;;;;;5.10;4.80;;;22.40;99.90;;;;;;5072375;28;20498;-64
2021/07/08 07:55:16;;;;;;;5.83;5.33;;;22.40;99.90;;;;;;5073149;28;20471;-65
2021/07/08 07:57:44;;;;;;;5.33;4.83;;;22.40;99.90;;;;;;5072789;28;20863;-65
2021/07/08 08:00:12;;;;;;;3.97;3.77;;;22.40;99.90;;;;;;5073100;28;20470;-65
2021/07/08 08:02:40;;;;;;;5.10;4.37;;;22.40;99.90;;;;;;5072455;28;20474;-65
2021/07/08 08:10:34;;;;;;;5.17;4.70;;;22.30;99.90;;;;;;5072926;28;20476;-64
2021/07/08 08:13:03;;;;;;;4.83;4.40;;;22.30;99.90;;;;;;5064233;28;20522;-65
2021/07/08 08:15:30;;;;;;;3.47;3.17;;;22.30;99.90;;;;;;5065793;28;20471;-64
2021/07/08 08:18:00;;;;;;;3.63;3.43;;;22.30;99.90;;;;;;5052176;28;20483;-65
2021/07/08 08:20:27;;;;;;;4.23;3.93;;;22.30;99.90;;;;;;5068778;28;20481;-64
2021/07/08 08:22:54;;;;;;;4.23;3.90;;;22.30;99.90;;;;;;5072141;28;20462;-65
2021/07/08 08:25:22;;;;;;;5.97;5.47;;;22.30;99.90;;;;;;5072717;28;20462;-64
2021/07/08 08:27:49;;;;;;;5.90;5.40;;;22.30;99.90;;;;;;5072303;28;20470;-65
2021/07/08 08:30:18;;;;;;;7.07;6.50;;;22.30;99.90;;;;;;5072617;28;20462;-65
2021/07/08 08:32:45;;;;;;;4.63;4.33;;;22.30;99.90;;;;;;5068112;28;20475;-65
2021/07/08 08:35:13;;;;;;;4.67;4.27;;;22.30;99.90;;;;;;5072162;28;20820;-63
2021/07/08 08:37:43;;;;;;;4.50;4.10;;;22.30;99.90;;;;;;5072383;28;20565;-64
2021/07/08 08:40:12;;;;;;;4.43;4.13;;;22.30;99.90;;;;;;5072577;28;20494;-65
2021/07/08 08:42:39;;;;;;;5.90;4.20;;;22.30;99.90;;;;;;5072030;28;20458;-64
2021/07/08 08:45:11;;;;;;;4.50;4.20;;;22.20;99.90;;;;;;5052852;28;20475;-65
2021/07/08 08:47:54;;;;;;;4.93;4.43;;;22.20;99.90;;;;;;5051609;28;20502;-64
2021/07/08 08:50:21;;;;;;;5.33;4.30;;;22.20;99.90;;;;;;5056227;28;20474;-65
2021/07/08 08:52:48;;;;;;;4.03;3.73;;;22.20;99.90;;;;;;5072399;28;20478;-64
2021/07/08 08:55:15;;;;;;;4.23;3.80;;;22.20;99.90;;;;;;5061224;28;20478;-64
2021/07/08 08:57:45;;;;;;;3.87;3.57;;;22.20;99.90;;;;;;5052032;28;20467;-65
2021/07/08 09:00:37;;;;;;;5.40;4.70;;;22.30;99.90;;;;;;5052385;28;20542;-64
2021/07/08 09:03:08;;;;;;;4.80;4.50;;;22.30;99.90;;;;;;5052063;28;20460;-65
2021/07/08 09:05:36;;;;;;;5.23;4.20;;;22.30;99.90;;;;;;5052349;28;20463;-65
2021/07/08 09:08:21;;;;;;;4.40;4.00;;;22.20;99.90;;;;;;5051744;28;20475;-64
2021/07/08 09:10:51;;;;;;;5.10;4.60;;;22.20;99.90;;;;;;5052213;28;20542;-65
2021/07/08 09:13:18;;;;;;;4.17;3.87;;;22.20;99.90;;;;;;5051768;28;20490;-65
2021/07/08 09:15:46;;;;;;;3.83;3.53;;;22.30;99.90;;;;;;5052247;28;21007;-64
2021/07/08 09:18:15;;;;;;;4.53;4.23;;;22.30;99.90;;;;;;5051551;28;20500;-64
2021/07/08 09:20:43;;;;;;;5.17;4.77;;;22.40;99.90;;;;;;5055290;28;20510;-64
2021/07/08 09:23:16;;;;;;;6.63;4.63;;;22.40;99.90;;;;;;5065035;28;20459;-65
2021/07/08 09:25:44;;;;;;;4.27;3.97;;;22.40;99.90;;;;;;5075921;28;20462;-65
2021/07/08 09:28:15;;;;;;;4.80;4.27;;;22.50;99.90;;;;;;5075348;28;20539;-65
2021/07/08 09:30:44;;;;;;;4.20;3.80;;;22.50;99.90;;;;;;5075676;28;20473;-64
2021/07/08 09:33:45;;;;;;;4.10;3.70;;;22.60;99.90;;;;;;5070942;28;20474;-65
2021/07/08 09:36:15;;;;;;;3.57;3.27;;;22.70;99.90;;;;;;5013600;28;20465;-64
2021/07/08 09:38:44;;;;;;;5.83;3.60;;;22.80;99.90;;;;;;5013892;28;20464;-64
2021/07/08 09:41:16;;;;;;;3.50;3.20;;;22.90;99.90;;;;;;5043756;28;20465;-64
2021/07/08 09:43:43;;;;;;;3.73;3.53;;;22.90;99.90;;;;;;5075542;28;20466;-64
2021/07/08 09:46:12;;;;;;;3.43;3.20;;;23.00;99.90;;;;;;5074973;28;20995;-64
2021/07/08 09:48:40;;;;;;;5.60;3.93;;;23.00;99.90;;;;;;5075177;28;20477;-64
2021/07/08 09:51:25;;;;;;;3.87;2.80;;;23.00;99.90;;;;;;5074960;28;20462;-64
2021/07/08 09:53:52;;;;;;;3.00;2.80;;;23.00;99.90;;;;;;5075084;28;20466;-65
2021/07/08 09:56:42;;;;;;;2.67;2.47;;;23.00;99.90;;;;;;5055295;28;20843;-64
2021/07/08 09:59:09;;;;;;;3.00;2.80;;;23.10;99.90;;;;;;5055007;28;20470;-64
2021/07/08 10:01:36;;;;;;;3.60;3.27;;;23.10;99.90;;;;;;5055265;28;20475;-64
2021/07/08 10:04:04;;;;;;;3.50;3.07;;;23.10;99.90;;;;;;5054578;28;20463;-64
2021/07/08 10:06:33;;;;;;;3.83;3.63;;;23.20;99.90;;;;;;5055260;28;20463;-64
2021/07/08 10:09:00;;;;;;;4.50;3.67;;;23.30;99.90;;;;;;5055016;28;20505;-64
2021/07/08 10:11:28;;;;;;;4.03;3.70;;;23.30;99.90;;;;;;5054872;28;20451;-64
2021/07/08 10:13:59;;;;;;;4.40;3.40;;;23.30;99.90;;;;;;5054925;28;20852;-64
2021/07/08 10:16:27;;;;;;;3.30;3.00;;;23.40;99.90;;;;;;5054572;28;20513;-64
2021/07/08 10:18:59;;;;;;;2.90;2.70;;;23.40;99.90;;;;;;5054194;28;20808;-64
2021/07/08 10:21:29;;;;;;;3.10;2.87;;;23.40;99.90;;;;;;5054632;28;20506;-64
2021/07/08 10:23:59;;;;;;;3.90;2.80;;;23.40;99.90;;;;;;5070432;28;20991;-64
2021/07/08 10:26:26;;;;;;;3.53;2.90;;;23.40;99.90;;;;;;5074248;28;20836;-65
2021/07/08 10:28:56;;;;;;;4.80;3.30;;;23.50;99.90;;;;;;5074503;28;20509;-64
2021/07/08 10:31:24;;;;;;;3.30;3.00;;;23.50;99.90;;;;;;5073545;28;20462;-64
2021/07/08 10:34:11;;;;;;;3.10;2.87;;;23.50;99.90;;;;;;5070163;28;20466;-64
2021/07/08 10:36:39;;;;;;;2.87;2.67;;;23.50;99.90;;;;;;5074324;28;21286;-64
2021/07/08 10:39:11;;;;;;;2.93;2.73;;;23.40;99.90;;;;;;5074531;28;20470;-64
2021/07/08 10:41:50;;;;;;;3.50;3.20;;;23.50;99.90;;;;;;5074344;28;20535;-64
2021/07/08 10:44:53;;;;;;;3.33;2.70;;;23.50;99.90;;;;;;5073893;28;20808;-64
2021/07/08 10:47:41;;;;;;;2.73;2.53;;;23.50;99.90;;;;;;5074034;28;20473;-64
2021/07/08 10:50:38;;;;;;;2.83;2.53;;;23.50;99.90;;;;;;5074361;28;20851;-64
2021/07/08 10:53:16;;;;;;;2.83;2.63;;;23.50;99.90;;;;;;5073972;28;20467;-64
2021/07/08 10:55:45;;;;;;;3.17;2.97;;;23.50;99.90;;;;;;5059667;28;20968;-65
2021/07/08 10:58:44;;;;;;;4.23;3.83;;;23.40;99.90;;;;;;5053603;28;20475;-64
2021/07/08 11:01:32;;;;;;;3.60;3.30;;;23.40;99.90;;;;;;5053632;28;20490;-64
2021/07/08 11:04:02;;;;;;;5.13;2.97;;;23.40;99.90;;;;;;5053359;28;20459;-64
2021/07/08 11:06:30;;;;;;;3.00;2.80;;;23.30;99.80;;;;;;5053739;28;20472;-64
2021/07/08 11:09:01;;;;;;;2.77;2.50;;;23.40;99.90;;;;;;5053378;28;20479;-64
2021/07/08 11:12:00;;;;;;;5.07;4.57;;;23.40;99.90;;;;;;5054115;28;20459;-65
2021/07/08 11:14:28;;;;;;;4.40;4.00;;;23.40;99.90;;;;;;5053309;28;20474;-64
2021/07/08 11:16:59;;;;;;;4.93;3.27;;;23.30;99.90;;;;;;5053766;28;20474;-64
2021/07/08 11:19:37;;;;;;;4.37;3.07;;;23.30;99.90;;;;;;5052856;28;20472;-64
2021/07/08 11:22:08;;;;;;;4.37;2.40;;;23.40;99.90;;;;;;5053620;28;20510;-64
2021/07/08 11:24:46;;;;;;;2.87;2.70;;;23.40;99.90;;;;;;5073457;28;20497;-64
2021/07/08 11:27:15;;;;;;;3.20;3.00;;;23.40;99.90;;;;;;5073305;28;20869;-64
2021/07/08 11:29:47;;;;;;;2.93;2.73;;;23.40;99.90;;;;;;5073511;28;20536;-65
2021/07/08 11:32:22;;;;;;;3.67;3.37;;;23.40;99.90;;;;;;5069529;28;20806;-64
2021/07/08 11:34:56;;;;;;;3.37;2.77;;;23.50;99.90;;;;;;5053216;28;20517;-64
2021/07/08 11:37:25;;;;;;;4.10;3.70;;;23.50;99.90;;;;;;5052930;28;20471;-64
2021/07/08 11:39:57;;;;;;;3.70;3.50;;;23.50;99.90;;;;;;5053354;28;20550;-64
2021/07/08 11:42:25;;;;;;;3.67;3.37;;;23.50;99.90;;;;;;5052079;28;20479;-64
2021/07/08 11:44:54;;;;;;;4.40;3.87;;;23.60;99.90;;;;;;5053114;28;20529;-64
2021/07/08 11:47:22;;;;;;;4.03;3.53;;;23.60;99.90;;;;;;5052773;28;20794;-64
2021/07/08 11:49:50;;;;;;;3.97;3.63;;;23.60;99.90;;;;;;5053087;28;20474;-64
2021/07/08 11:52:20;;;;;;;3.40;3.20;;;23.60;99.90;;;;;;5052797;28;20953;-64
2021/07/08 11:55:00;;;;;;;4.27;3.97;;;23.60;99.90;;;;;;5059871;28;20463;-64
2021/07/08 11:57:28;;;;;;;3.40;3.20;;;23.60;99.90;;;;;;5072624;28;20458;-64
2021/07/08 11:59:55;;;;;;;3.23;2.93;;;23.50;99.90;;;;;;5073072;28;20474;-64
2021/07/08 12:02:33;;;;;;;3.63;3.33;;;23.50;99.90;;;;;;5072446;28;20471;-65
2021/07/08 12:05:16;;;;;;;3.50;3.30;;;23.50;99.90;;;;;;5072988;28;20539;-64
2021/07/08 12:07:50;;;;;;;4.20;3.90;;;23.50;99.90;;;;;;5073321;28;20468;-64
2021/07/08 12:10:23;;;;;;;4.93;3.37;;;23.40;99.90;;;;;;5072645;28;20458;-64
2021/07/08 12:12:52;;;;;;;3.60;3.40;;;23.40;99.90;;;;;;5072961;28;20458;-64
2021/07/08 12:15:21;;;;;;;3.87;3.63;;;23.40;99.90;;;;;;5072512;28;20454;-64
2021/07/08 12:17:53;;;;;;;3.90;3.60;;;23.40;99.90;;;;;;5072464;28;20478;-65
2021/07/08 12:20:20;;;;;;;3.97;3.70;;;23.40;99.90;;;;;;5072249;28;20477;-65
2021/07/08 12:23:02;;;;;;;3.97;3.70;;;23.40;99.90;;;;;;5072762;28;20490;-64
2021/07/08 12:25:30;;;;;;;4.07;3.77;;;23.40;99.90;;;;;;5072584;28;20874;-64
2021/07/08 12:27:57;;;;;;;4.63;4.13;;;23.40;99.90;;;;;;5072375;28;20501;-64
2021/07/08 12:30:27;;;;;;;4.03;3.73;;;23.40;99.90;;;;;;5072141;28;21438;-64
2021/07/08 12:33:09;;;;;;;7.27;4.10;;;23.40;99.90;;;;;;5068503;28;20466;-64
2021/07/08 12:35:45;;;;;;;4.80;3.90;;;23.40;99.90;;;;;;5072381;28;20456;-64
2021/07/08 12:38:14;;;;;;;4.57;4.07;;;23.30;99.90;;;;;;5072193;28;20519;-64
2021/07/08 12:40:42;;;;;;;4.80;4.00;;;23.30;99.90;;;;;;5072505;28;20796;-65
2021/07/08 12:43:11;;;;;;;3.80;3.50;;;23.30;99.90;;;;;;5072723;28;20466;-64
2021/07/08 12:45:39;;;;;;;4.27;3.87;;;23.20;99.90;;;;;;5072415;28;21242;-64
2021/07/08 12:48:11;;;;;;;3.80;3.60;;;23.20;99.90;;;;;;5072048;28;20497;-64
2021/07/08 12:50:41;;;;;;;4.10;3.37;;;23.20;99.90;;;;;;5071935;28;20466;-64
2021/07/08 12:53:13;;;;;;;4.50;4.10;;;23.20;99.90;;;;;;5072395;28;20458;-64
2021/07/08 12:55:44;;;;;;;4.67;4.30;;;23.20;99.90;;;;;;5075329;28;20453;-64
2021/07/08 12:58:15;;;;;;;5.10;4.60;;;23.20;99.90;;;;;;5076225;28;20549;-64
2021/07/08 13:00:42;;;;;;;4.17;3.90;;;23.20;99.90;;;;;;5076240;28;20462;-64
2021/07/08 13:03:18;;;;;;;5.20;4.77;;;23.30;99.90;;;;;;5068407;28;20471;-64